sensor_id;sensor_type;location;lat;lon;timestamp;P1;durP1;ratioP1;P2;durP2;ratioP2
5416;SDS011;2731;50.754;12.990;2023-10-19T00:02:26;12.43;;;9.00;;
5416;SDS011;2731;50.754;12.990;2023-10-19T00:04:52;12.93;;;8.40;;
5416;SDS011;2731;50.754;12.990;2023-10-19T00:07:37;23.48;;;9.35;;
5416;SDS011;2731;50.754;12.990;2023-10-19T00:10:21;13.18;;;8.80;;
5416;SDS011;2731;50.754;12.990;2023-10-19T00:13:06;16.52;;;9.60;;
5416;SDS011;2731;50.754;12.990;2023-10-19T00:15:34;13.70;;;9.55;;
5416;SDS011;2731;50.754;12.990;2023-10-19T00:18:23;13.50;;;7.97;;
5416;SDS011;2731;50.754;12.990;2023-10-19T00:21:08;16.48;;;9.45;;
5416;SDS011;2731;50.754;12.990;2023-10-19T00:24:09;11.15;;;8.20;;
5416;SDS011;2731;50.754;12.990;2023-10-19T00:26:53;12.85;;;8.95;;
5416;SDS011;2731;50.754;12.990;2023-10-19T00:29:49;13.63;;;8.80;;
5416;SDS011;2731;50.754;12.990;2023-10-19T00:32:35;18.10;;;8.95;;
5416;SDS011;2731;50.754;12.990;2023-10-19T00:35:04;17.15;;;9.55;;
5416;SDS011;2731;50.754;12.990;2023-10-19T00:38:08;11.57;;;8.07;;
5416;SDS011;2731;50.754;12.990;2023-10-19T00:41:11;14.57;;;8.57;;
5416;SDS011;2731;50.754;12.990;2023-10-19T00:44:05;14.35;;;8.45;;
5416;SDS011;2731;50.754;12.990;2023-10-19T00:46:40;12.48;;;6.97;;
5416;SDS011;2731;50.754;12.990;2023-10-19T00:49:06;15.13;;;8.15;;
5416;SDS011;2731;50.754;12.990;2023-10-19T00:51:53;20.10;;;9.45;;
5416;SDS011;2731;50.754;12.990;2023-10-19T00:54:46;13.52;;;8.18;;
5416;SDS011;2731;50.754;12.990;2023-10-19T00:57:36;13.52;;;8.65;;
5416;SDS011;2731;50.754;12.990;2023-10-19T01:00:21;13.25;;;8.43;;
5416;SDS011;2731;50.754;12.990;2023-10-19T01:03:14;15.57;;;8.25;;
5416;SDS011;2731;50.754;12.990;2023-10-19T01:05:51;13.80;;;8.38;;
5416;SDS011;2731;50.754;12.990;2023-10-19T01:08:19;12.38;;;7.88;;
5416;SDS011;2731;50.754;12.990;2023-10-19T01:11:15;12.77;;;8.50;;
5416;SDS011;2731;50.754;12.990;2023-10-19T01:14:17;13.20;;;8.32;;
5416;SDS011;2731;50.754;12.990;2023-10-19T01:17:02;11.75;;;8.05;;
5416;SDS011;2731;50.754;12.990;2023-10-19T01:19:50;19.45;;;9.60;;
5416;SDS011;2731;50.754;12.990;2023-10-19T01:22:36;17.73;;;10.38;;
5416;SDS011;2731;50.754;12.990;2023-10-19T01:25:04;18.50;;;10.15;;
5416;SDS011;2731;50.754;12.990;2023-10-19T01:27:54;18.10;;;9.68;;
5416;SDS011;2731;50.754;12.990;2023-10-19T01:30:41;15.82;;;9.73;;
5416;SDS011;2731;50.754;12.990;2023-10-19T01:33:26;17.08;;;10.15;;
5416;SDS011;2731;50.754;12.990;2023-10-19T01:36:12;18.92;;;10.93;;
5416;SDS011;2731;50.754;12.990;2023-10-19T01:39:06;18.95;;;11.75;;
5416;SDS011;2731;50.754;12.990;2023-10-19T01:41:54;15.00;;;10.90;;
5416;SDS011;2731;50.754;12.990;2023-10-19T01:44:22;17.08;;;11.57;;
5416;SDS011;2731;50.754;12.990;2023-10-19T01:47:08;18.88;;;12.70;;
5416;SDS011;2731;50.754;12.990;2023-10-19T01:49:34;17.73;;;11.00;;
5416;SDS011;2731;50.754;12.990;2023-10-19T01:52:21;22.50;;;11.57;;
5416;SDS011;2731;50.754;12.990;2023-10-19T01:55:08;19.25;;;10.80;;
5416;SDS011;2731;50.754;12.990;2023-10-19T01:57:53;22.60;;;11.65;;
5416;SDS011;2731;50.754;12.990;2023-10-19T02:00:38;21.05;;;13.15;;
5416;SDS011;2731;50.754;12.990;2023-10-19T02:03:07;20.75;;;12.35;;
5416;SDS011;2731;50.754;12.990;2023-10-19T02:06:01;18.65;;;11.88;;
5416;SDS011;2731;50.754;12.990;2023-10-19T02:09:04;17.45;;;11.30;;
5416;SDS011;2731;50.754;12.990;2023-10-19T02:12:09;21.70;;;12.57;;
5416;SDS011;2731;50.754;12.990;2023-10-19T02:14:53;22.38;;;13.30;;
5416;SDS011;2731;50.754;12.990;2023-10-19T02:17:38;17.45;;;11.73;;
5416;SDS011;2731;50.754;12.990;2023-10-19T02:20:05;19.70;;;11.90;;
5416;SDS011;2731;50.754;12.990;2023-10-19T02:22:56;22.60;;;13.63;;
5416;SDS011;2731;50.754;12.990;2023-10-19T02:25:47;18.73;;;12.35;;
5416;SDS011;2731;50.754;12.990;2023-10-19T02:28:33;18.95;;;11.80;;
5416;SDS011;2731;50.754;12.990;2023-10-19T02:31:22;19.20;;;13.20;;
5416;SDS011;2731;50.754;12.990;2023-10-19T02:33:50;24.02;;;14.10;;
5416;SDS011;2731;50.754;12.990;2023-10-19T02:36:44;20.45;;;13.35;;
5416;SDS011;2731;50.754;12.990;2023-10-19T02:39:29;23.90;;;13.55;;
5416;SDS011;2731;50.754;12.990;2023-10-19T02:42:14;21.45;;;13.02;;
5416;SDS011;2731;50.754;12.990;2023-10-19T02:45:01;22.33;;;13.65;;
5416;SDS011;2731;50.754;12.990;2023-10-19T02:47:48;26.38;;;16.13;;
5416;SDS011;2731;50.754;12.990;2023-10-19T02:50:34;23.35;;;14.27;;
5416;SDS011;2731;50.754;12.990;2023-10-19T02:53:00;25.05;;;15.50;;
5416;SDS011;2731;50.754;12.990;2023-10-19T02:55:45;20.20;;;12.82;;
5416;SDS011;2731;50.754;12.990;2023-10-19T02:58:30;22.35;;;14.80;;
5416;SDS011;2731;50.754;12.990;2023-10-19T03:01:16;27.52;;;14.27;;
5416;SDS011;2731;50.754;12.990;2023-10-19T03:04:05;26.23;;;15.02;;
5416;SDS011;2731;50.754;12.990;2023-10-19T03:06:31;25.35;;;16.40;;
5416;SDS011;2731;50.754;12.990;2023-10-19T03:08:57;29.27;;;16.15;;
5416;SDS011;2731;50.754;12.990;2023-10-19T03:11:44;25.90;;;16.17;;
5416;SDS011;2731;50.754;12.990;2023-10-19T03:14:29;25.52;;;15.93;;
5416;SDS011;2731;50.754;12.990;2023-10-19T03:17:14;25.58;;;15.98;;
5416;SDS011;2731;50.754;12.990;2023-10-19T03:19:59;25.92;;;16.20;;
5416;SDS011;2731;50.754;12.990;2023-10-19T03:22:44;24.50;;;15.40;;
5416;SDS011;2731;50.754;12.990;2023-10-19T03:25:12;27.90;;;16.38;;
5416;SDS011;2731;50.754;12.990;2023-10-19T03:28:16;20.73;;;13.98;;
5416;SDS011;2731;50.754;12.990;2023-10-19T03:31:02;23.95;;;14.93;;
5416;SDS011;2731;50.754;12.990;2023-10-19T03:33:48;22.75;;;13.68;;
5416;SDS011;2731;50.754;12.990;2023-10-19T03:36:23;25.73;;;15.52;;
5416;SDS011;2731;50.754;12.990;2023-10-19T03:38:50;22.00;;;15.80;;
5416;SDS011;2731;50.754;12.990;2023-10-19T03:41:36;21.77;;;14.68;;
5416;SDS011;2731;50.754;12.990;2023-10-19T03:44:23;21.20;;;15.10;;
5416;SDS011;2731;50.754;12.990;2023-10-19T03:47:07;20.75;;;14.35;;
5416;SDS011;2731;50.754;12.990;2023-10-19T03:49:55;21.85;;;14.32;;
5416;SDS011;2731;50.754;12.990;2023-10-19T03:52:40;23.20;;;15.45;;
5416;SDS011;2731;50.754;12.990;2023-10-19T03:55:24;19.58;;;14.48;;
5416;SDS011;2731;50.754;12.990;2023-10-19T03:57:53;20.00;;;13.32;;
5416;SDS011;2731;50.754;12.990;2023-10-19T04:00:38;17.00;;;13.68;;
5416;SDS011;2731;50.754;12.990;2023-10-19T04:03:23;18.92;;;11.85;;
5416;SDS011;2731;50.754;12.990;2023-10-19T04:06:08;18.23;;;13.00;;
5416;SDS011;2731;50.754;12.990;2023-10-19T04:08:57;18.20;;;13.43;;
5416;SDS011;2731;50.754;12.990;2023-10-19T04:11:43;20.90;;;14.05;;
5416;SDS011;2731;50.754;12.990;2023-10-19T04:14:16;21.13;;;14.07;;
5416;SDS011;2731;50.754;12.990;2023-10-19T04:17:01;16.02;;;11.60;;
5416;SDS011;2731;50.754;12.990;2023-10-19T04:19:47;16.83;;;11.95;;
5416;SDS011;2731;50.754;12.990;2023-10-19T04:22:39;20.92;;;13.35;;
5416;SDS011;2731;50.754;12.990;2023-10-19T04:25:23;17.95;;;12.90;;
5416;SDS011;2731;50.754;12.990;2023-10-19T04:28:13;19.48;;;13.38;;
5416;SDS011;2731;50.754;12.990;2023-10-19T04:30:58;16.58;;;12.15;;
5416;SDS011;2731;50.754;12.990;2023-10-19T04:33:31;22.02;;;13.50;;
5416;SDS011;2731;50.754;12.990;2023-10-19T04:35:59;19.00;;;13.30;;
5416;SDS011;2731;50.754;12.990;2023-10-19T04:38:30;20.05;;;13.05;;
5416;SDS011;2731;50.754;12.990;2023-10-19T04:43:27;19.48;;;12.35;;
5416;SDS011;2731;50.754;12.990;2023-10-19T04:45:53;19.55;;;12.25;;
5416;SDS011;2731;50.754;12.990;2023-10-19T04:48:38;17.95;;;12.20;;
5416;SDS011;2731;50.754;12.990;2023-10-19T04:51:27;15.57;;;11.23;;
5416;SDS011;2731;50.754;12.990;2023-10-19T04:54:12;15.68;;;11.00;;
5416;SDS011;2731;50.754;12.990;2023-10-19T04:56:57;19.52;;;12.00;;
5416;SDS011;2731;50.754;12.990;2023-10-19T04:59:43;16.20;;;11.60;;
5416;SDS011;2731;50.754;12.990;2023-10-19T05:02:31;16.10;;;11.18;;
5416;SDS011;2731;50.754;12.990;2023-10-19T05:04:57;19.15;;;13.85;;
5416;SDS011;2731;50.754;12.990;2023-10-19T05:07:42;15.32;;;11.50;;
5416;SDS011;2731;50.754;12.990;2023-10-19T05:10:27;20.85;;;13.38;;
5416;SDS011;2731;50.754;12.990;2023-10-19T05:13:15;16.15;;;11.35;;
5416;SDS011;2731;50.754;12.990;2023-10-19T05:15:59;18.13;;;11.77;;
5416;SDS011;2731;50.754;12.990;2023-10-19T05:18:26;19.55;;;13.05;;
5416;SDS011;2731;50.754;12.990;2023-10-19T05:21:10;21.50;;;13.10;;
5416;SDS011;2731;50.754;12.990;2023-10-19T05:23:56;20.08;;;13.10;;
5416;SDS011;2731;50.754;12.990;2023-10-19T05:26:44;21.75;;;13.48;;
5416;SDS011;2731;50.754;12.990;2023-10-19T05:29:33;20.73;;;14.02;;
5416;SDS011;2731;50.754;12.990;2023-10-19T05:32:17;21.20;;;14.23;;
5416;SDS011;2731;50.754;12.990;2023-10-19T05:35:07;20.45;;;14.18;;
5416;SDS011;2731;50.754;12.990;2023-10-19T05:37:38;19.80;;;12.18;;
5416;SDS011;2731;50.754;12.990;2023-10-19T05:40:04;21.00;;;14.35;;
5416;SDS011;2731;50.754;12.990;2023-10-19T05:42:30;19.52;;;13.98;;
5416;SDS011;2731;50.754;12.990;2023-10-19T05:44:56;23.35;;;13.32;;
5416;SDS011;2731;50.754;12.990;2023-10-19T05:47:23;20.10;;;12.95;;
5416;SDS011;2731;50.754;12.990;2023-10-19T05:49:49;22.65;;;14.63;;
5416;SDS011;2731;50.754;12.990;2023-10-19T05:52:15;22.80;;;14.18;;
5416;SDS011;2731;50.754;12.990;2023-10-19T05:54:59;21.45;;;14.95;;
5416;SDS011;2731;50.754;12.990;2023-10-19T05:57:44;19.60;;;13.05;;
5416;SDS011;2731;50.754;12.990;2023-10-19T06:00:29;23.08;;;14.73;;
5416;SDS011;2731;50.754;12.990;2023-10-19T06:03:14;20.35;;;13.52;;
5416;SDS011;2731;50.754;12.990;2023-10-19T06:05:40;23.25;;;14.05;;
5416;SDS011;2731;50.754;12.990;2023-10-19T06:08:25;21.42;;;13.48;;
5416;SDS011;2731;50.754;12.990;2023-10-19T06:11:10;22.83;;;14.10;;
5416;SDS011;2731;50.754;12.990;2023-10-19T06:13:55;20.60;;;14.18;;
5416;SDS011;2731;50.754;12.990;2023-10-19T06:16:40;30.20;;;19.02;;
5416;SDS011;2731;50.754;12.990;2023-10-19T06:19:25;22.05;;;14.02;;
5416;SDS011;2731;50.754;12.990;2023-10-19T06:22:10;23.65;;;14.40;;
5416;SDS011;2731;50.754;12.990;2023-10-19T06:24:37;21.80;;;14.88;;
5416;SDS011;2731;50.754;12.990;2023-10-19T06:27:21;21.17;;;15.07;;
5416;SDS011;2731;50.754;12.990;2023-10-19T06:30:07;19.25;;;14.00;;
5416;SDS011;2731;50.754;12.990;2023-10-19T06:32:55;18.73;;;12.57;;
5416;SDS011;2731;50.754;12.990;2023-10-19T06:35:31;17.58;;;12.70;;
5416;SDS011;2731;50.754;12.990;2023-10-19T06:37:58;22.33;;;13.70;;
5416;SDS011;2731;50.754;12.990;2023-10-19T06:40:24;20.83;;;14.07;;
5416;SDS011;2731;50.754;12.990;2023-10-19T06:42:57;18.15;;;12.82;;
5416;SDS011;2731;50.754;12.990;2023-10-19T06:45:23;18.90;;;12.77;;
5416;SDS011;2731;50.754;12.990;2023-10-19T06:47:51;22.02;;;12.52;;
5416;SDS011;2731;50.754;12.990;2023-10-19T06:50:19;19.92;;;12.57;;
5416;SDS011;2731;50.754;12.990;2023-10-19T06:53:04;19.85;;;12.02;;
5416;SDS011;2731;50.754;12.990;2023-10-19T06:55:48;17.90;;;12.43;;
5416;SDS011;2731;50.754;12.990;2023-10-19T06:58:33;21.00;;;14.30;;
5416;SDS011;2731;50.754;12.990;2023-10-19T07:01:18;18.77;;;12.70;;
5416;SDS011;2731;50.754;12.990;2023-10-19T07:04:07;18.20;;;11.98;;
5416;SDS011;2731;50.754;12.990;2023-10-19T07:06:33;16.92;;;11.82;;
5416;SDS011;2731;50.754;12.990;2023-10-19T07:09:18;15.85;;;10.88;;
5416;SDS011;2731;50.754;12.990;2023-10-19T07:12:04;14.30;;;10.93;;
5416;SDS011;2731;50.754;12.990;2023-10-19T07:14:51;22.38;;;14.32;;
5416;SDS011;2731;50.754;12.990;2023-10-19T07:17:36;24.83;;;14.25;;
5416;SDS011;2731;50.754;12.990;2023-10-19T07:20:21;18.50;;;11.80;;
5416;SDS011;2731;50.754;12.990;2023-10-19T07:23:10;15.57;;;10.32;;
5416;SDS011;2731;50.754;12.990;2023-10-19T07:25:47;12.85;;;8.77;;
5416;SDS011;2731;50.754;12.990;2023-10-19T07:28:18;16.65;;;11.55;;
5416;SDS011;2731;50.754;12.990;2023-10-19T07:30:45;15.57;;;10.55;;
5416;SDS011;2731;50.754;12.990;2023-10-19T07:33:16;12.63;;;9.27;;
5416;SDS011;2731;50.754;12.990;2023-10-19T07:35:42;16.20;;;9.88;;
5416;SDS011;2731;50.754;12.990;2023-10-19T07:38:09;13.95;;;9.57;;
5416;SDS011;2731;50.754;12.990;2023-10-19T07:40:35;15.70;;;10.50;;
5416;SDS011;2731;50.754;12.990;2023-10-19T07:43:02;16.33;;;11.40;;
5416;SDS011;2731;50.754;12.990;2023-10-19T07:45:50;29.30;;;18.40;;
5416;SDS011;2731;50.754;12.990;2023-10-19T07:48:36;31.73;;;19.85;;
5416;SDS011;2731;50.754;12.990;2023-10-19T07:51:20;23.58;;;15.73;;
5416;SDS011;2731;50.754;12.990;2023-10-19T07:54:05;15.65;;;11.07;;
5416;SDS011;2731;50.754;12.990;2023-10-19T07:56:50;23.90;;;12.95;;
5416;SDS011;2731;50.754;12.990;2023-10-19T07:59:35;21.92;;;14.48;;
5416;SDS011;2731;50.754;12.990;2023-10-19T08:02:01;17.63;;;12.70;;
5416;SDS011;2731;50.754;12.990;2023-10-19T08:04:46;19.90;;;12.70;;
5416;SDS011;2731;50.754;12.990;2023-10-19T08:07:12;20.65;;;13.63;;
5416;SDS011;2731;50.754;12.990;2023-10-19T08:09:57;23.73;;;15.25;;
5416;SDS011;2731;50.754;12.990;2023-10-19T08:12:43;17.77;;;11.32;;
5416;SDS011;2731;50.754;12.990;2023-10-19T08:15:30;16.67;;;11.95;;
5416;SDS011;2731;50.754;12.990;2023-10-19T08:18:15;18.15;;;10.90;;
5416;SDS011;2731;50.754;12.990;2023-10-19T08:21:01;18.88;;;12.07;;
5416;SDS011;2731;50.754;12.990;2023-10-19T08:23:46;18.77;;;13.55;;
5416;SDS011;2731;50.754;12.990;2023-10-19T08:26:12;15.95;;;11.85;;
5416;SDS011;2731;50.754;12.990;2023-10-19T08:28:40;18.38;;;12.15;;
5416;SDS011;2731;50.754;12.990;2023-10-19T08:31:07;18.15;;;11.75;;
5416;SDS011;2731;50.754;12.990;2023-10-19T08:33:35;16.52;;;12.23;;
5416;SDS011;2731;50.754;12.990;2023-10-19T08:36:04;20.27;;;12.27;;
5416;SDS011;2731;50.754;12.990;2023-10-19T08:38:30;17.42;;;12.45;;
5416;SDS011;2731;50.754;12.990;2023-10-19T08:40:58;17.73;;;11.38;;
5416;SDS011;2731;50.754;12.990;2023-10-19T08:43:43;19.08;;;13.10;;
5416;SDS011;2731;50.754;12.990;2023-10-19T08:46:28;19.05;;;13.25;;
5416;SDS011;2731;50.754;12.990;2023-10-19T08:49:13;19.52;;;11.88;;
5416;SDS011;2731;50.754;12.990;2023-10-19T08:51:58;18.85;;;12.95;;
5416;SDS011;2731;50.754;12.990;2023-10-19T08:54:43;15.90;;;11.25;;
5416;SDS011;2731;50.754;12.990;2023-10-19T08:57:28;17.83;;;12.90;;
5416;SDS011;2731;50.754;12.990;2023-10-19T08:59:57;20.42;;;13.75;;
5416;SDS011;2731;50.754;12.990;2023-10-19T09:02:42;18.15;;;12.93;;
5416;SDS011;2731;50.754;12.990;2023-10-19T09:05:26;17.52;;;12.30;;
5416;SDS011;2731;50.754;12.990;2023-10-19T09:07:53;16.83;;;11.02;;
5416;SDS011;2731;50.754;12.990;2023-10-19T09:10:40;17.77;;;11.68;;
5416;SDS011;2731;50.754;12.990;2023-10-19T09:13:26;19.58;;;12.35;;
5416;SDS011;2731;50.754;12.990;2023-10-19T09:16:12;16.02;;;11.45;;
5416;SDS011;2731;50.754;12.990;2023-10-19T09:18:57;19.70;;;13.35;;
5416;SDS011;2731;50.754;12.990;2023-10-19T09:21:42;17.50;;;12.27;;
5416;SDS011;2731;50.754;12.990;2023-10-19T09:24:27;21.17;;;13.00;;
5416;SDS011;2731;50.754;12.990;2023-10-19T09:26:53;17.15;;;13.18;;
5416;SDS011;2731;50.754;12.990;2023-10-19T09:29:39;16.17;;;11.27;;
5416;SDS011;2731;50.754;12.990;2023-10-19T09:32:25;16.73;;;11.25;;
5416;SDS011;2731;50.754;12.990;2023-10-19T09:35:11;17.63;;;12.20;;
5416;SDS011;2731;50.754;12.990;2023-10-19T09:37:59;17.52;;;12.18;;
5416;SDS011;2731;50.754;12.990;2023-10-19T09:40:47;18.00;;;12.30;;
5416;SDS011;2731;50.754;12.990;2023-10-19T09:43:35;17.38;;;11.23;;
5416;SDS011;2731;50.754;12.990;2023-10-19T09:46:07;15.75;;;11.15;;
5416;SDS011;2731;50.754;12.990;2023-10-19T09:48:52;16.50;;;11.93;;
5416;SDS011;2731;50.754;12.990;2023-10-19T09:51:37;16.88;;;10.45;;
5416;SDS011;2731;50.754;12.990;2023-10-19T09:54:26;17.52;;;12.05;;
5416;SDS011;2731;50.754;12.990;2023-10-19T09:57:12;17.58;;;12.07;;
5416;SDS011;2731;50.754;12.990;2023-10-19T10:00:02;15.70;;;11.02;;
5416;SDS011;2731;50.754;12.990;2023-10-19T10:02:52;19.70;;;12.30;;
5416;SDS011;2731;50.754;12.990;2023-10-19T10:05:45;18.65;;;12.68;;
5416;SDS011;2731;50.754;12.990;2023-10-19T10:08:31;26.02;;;16.90;;
5416;SDS011;2731;50.754;12.990;2023-10-19T10:10:58;18.10;;;13.05;;
5416;SDS011;2731;50.754;12.990;2023-10-19T10:13:43;18.00;;;12.15;;
5416;SDS011;2731;50.754;12.990;2023-10-19T10:16:34;18.20;;;11.77;;
5416;SDS011;2731;50.754;12.990;2023-10-19T10:19:20;20.63;;;12.88;;
5416;SDS011;2731;50.754;12.990;2023-10-19T10:22:08;18.02;;;12.38;;
5416;SDS011;2731;50.754;12.990;2023-10-19T10:24:55;19.08;;;13.10;;
5416;SDS011;2731;50.754;12.990;2023-10-19T10:27:22;18.17;;;11.93;;
5416;SDS011;2731;50.754;12.990;2023-10-19T10:30:07;16.25;;;11.98;;
5416;SDS011;2731;50.754;12.990;2023-10-19T10:32:54;18.77;;;12.18;;
5416;SDS011;2731;50.754;12.990;2023-10-19T10:35:53;16.05;;;12.55;;
5416;SDS011;2731;50.754;12.990;2023-10-19T10:38:38;17.42;;;12.95;;
5416;SDS011;2731;50.754;12.990;2023-10-19T10:41:04;17.65;;;11.82;;
5416;SDS011;2731;50.754;12.990;2023-10-19T10:43:54;18.70;;;12.90;;
5416;SDS011;2731;50.754;12.990;2023-10-19T10:46:39;16.15;;;11.95;;
5416;SDS011;2731;50.754;12.990;2023-10-19T10:49:24;18.45;;;13.27;;
5416;SDS011;2731;50.754;12.990;2023-10-19T10:52:09;17.55;;;12.35;;
5416;SDS011;2731;50.754;12.990;2023-10-19T10:55:15;14.98;;;12.30;;
5416;SDS011;2731;50.754;12.990;2023-10-19T10:57:59;18.20;;;12.10;;
5416;SDS011;2731;50.754;12.990;2023-10-19T11:00:44;17.98;;;11.65;;
5416;SDS011;2731;50.754;12.990;2023-10-19T11:03:30;15.95;;;11.52;;
5416;SDS011;2731;50.754;12.990;2023-10-19T11:06:15;19.17;;;12.95;;
5416;SDS011;2731;50.754;12.990;2023-10-19T11:09:08;16.27;;;12.00;;
5416;SDS011;2731;50.754;12.990;2023-10-19T11:11:39;18.20;;;11.55;;
5416;SDS011;2731;50.754;12.990;2023-10-19T11:14:24;15.23;;;11.20;;
5416;SDS011;2731;50.754;12.990;2023-10-19T11:17:12;14.00;;;10.23;;
5416;SDS011;2731;50.754;12.990;2023-10-19T11:19:58;14.60;;;10.60;;
5416;SDS011;2731;50.754;12.990;2023-10-19T11:22:50;16.52;;;11.25;;
5416;SDS011;2731;50.754;12.990;2023-10-19T11:25:34;16.23;;;10.80;;
5416;SDS011;2731;50.754;12.990;2023-10-19T11:28:01;15.68;;;11.60;;
5416;SDS011;2731;50.754;12.990;2023-10-19T11:30:48;17.73;;;12.40;;
5416;SDS011;2731;50.754;12.990;2023-10-19T11:33:33;16.67;;;11.43;;
5416;SDS011;2731;50.754;12.990;2023-10-19T11:36:18;14.93;;;11.85;;
5416;SDS011;2731;50.754;12.990;2023-10-19T11:39:03;15.98;;;11.73;;
5416;SDS011;2731;50.754;12.990;2023-10-19T11:41:48;13.32;;;9.80;;
5416;SDS011;2731;50.754;12.990;2023-10-19T11:44:33;13.90;;;9.95;;
5416;SDS011;2731;50.754;12.990;2023-10-19T11:46:59;16.38;;;11.63;;
5416;SDS011;2731;50.754;12.990;2023-10-19T11:49:44;15.88;;;10.73;;
5416;SDS011;2731;50.754;12.990;2023-10-19T11:52:29;11.90;;;9.32;;
5416;SDS011;2731;50.754;12.990;2023-10-19T11:55:14;12.63;;;10.40;;
5416;SDS011;2731;50.754;12.990;2023-10-19T11:57:59;12.25;;;9.82;;
5416;SDS011;2731;50.754;12.990;2023-10-19T12:00:44;12.98;;;9.43;;
5416;SDS011;2731;50.754;12.990;2023-10-19T12:03:11;11.52;;;8.88;;
5416;SDS011;2731;50.754;12.990;2023-10-19T12:05:56;11.80;;;8.45;;
5416;SDS011;2731;50.754;12.990;2023-10-19T12:08:41;12.07;;;8.88;;
5416;SDS011;2731;50.754;12.990;2023-10-19T12:11:07;11.40;;;8.32;;
5416;SDS011;2731;50.754;12.990;2023-10-19T12:13:58;11.55;;;7.45;;
5416;SDS011;2731;50.754;12.990;2023-10-19T12:16:47;9.40;;;7.57;;
5416;SDS011;2731;50.754;12.990;2023-10-19T12:19:32;10.18;;;6.75;;
5416;SDS011;2731;50.754;12.990;2023-10-19T12:22:17;8.55;;;6.43;;
5416;SDS011;2731;50.754;12.990;2023-10-19T12:25:02;6.15;;;5.38;;
5416;SDS011;2731;50.754;12.990;2023-10-19T12:27:47;8.05;;;6.10;;
5416;SDS011;2731;50.754;12.990;2023-10-19T12:30:13;7.30;;;6.05;;
5416;SDS011;2731;50.754;12.990;2023-10-19T12:32:44;6.60;;;5.07;;
5416;SDS011;2731;50.754;12.990;2023-10-19T12:35:11;5.57;;;3.90;;
5416;SDS011;2731;50.754;12.990;2023-10-19T12:37:38;3.53;;;2.70;;
5416;SDS011;2731;50.754;12.990;2023-10-19T12:40:34;5.38;;;3.70;;
5416;SDS011;2731;50.754;12.990;2023-10-19T12:43:19;4.50;;;3.40;;
5416;SDS011;2731;50.754;12.990;2023-10-19T12:46:06;8.32;;;6.50;;
5416;SDS011;2731;50.754;12.990;2023-10-19T12:48:52;8.30;;;6.47;;
5416;SDS011;2731;50.754;12.990;2023-10-19T12:51:41;9.35;;;6.63;;
5416;SDS011;2731;50.754;12.990;2023-10-19T12:54:27;9.00;;;7.20;;
5416;SDS011;2731;50.754;12.990;2023-10-19T12:56:53;10.43;;;7.85;;
5416;SDS011;2731;50.754;12.990;2023-10-19T12:59:38;7.55;;;5.03;;
5416;SDS011;2731;50.754;12.990;2023-10-19T13:02:22;5.53;;;4.05;;
5416;SDS011;2731;50.754;12.990;2023-10-19T13:05:08;5.55;;;4.68;;
5416;SDS011;2731;50.754;12.990;2023-10-19T13:07:38;4.63;;;3.55;;
5416;SDS011;2731;50.754;12.990;2023-10-19T13:10:22;3.67;;;2.45;;
5416;SDS011;2731;50.754;12.990;2023-10-19T13:12:48;3.53;;;2.78;;
5416;SDS011;2731;50.754;12.990;2023-10-19T13:15:34;3.13;;;2.33;;
5416;SDS011;2731;50.754;12.990;2023-10-19T13:18:19;3.65;;;2.67;;
5416;SDS011;2731;50.754;12.990;2023-10-19T13:20:46;6.68;;;2.88;;
5416;SDS011;2731;50.754;12.990;2023-10-19T13:23:13;3.92;;;2.83;;
5416;SDS011;2731;50.754;12.990;2023-10-19T13:26:05;4.65;;;3.03;;
5416;SDS011;2731;50.754;12.990;2023-10-19T13:28:50;5.43;;;3.20;;
5416;SDS011;2731;50.754;12.990;2023-10-19T13:31:36;4.22;;;3.00;;
5416;SDS011;2731;50.754;12.990;2023-10-19T13:34:21;4.55;;;2.53;;
5416;SDS011;2731;50.754;12.990;2023-10-19T13:37:06;3.40;;;2.60;;
5416;SDS011;2731;50.754;12.990;2023-10-19T13:39:51;2.88;;;2.47;;
5416;SDS011;2731;50.754;12.990;2023-10-19T13:42:36;3.42;;;2.83;;
5416;SDS011;2731;50.754;12.990;2023-10-19T13:45:21;6.05;;;2.88;;
5416;SDS011;2731;50.754;12.990;2023-10-19T13:48:07;4.53;;;2.63;;
5416;SDS011;2731;50.754;12.990;2023-10-19T13:50:53;3.00;;;2.65;;
5416;SDS011;2731;50.754;12.990;2023-10-19T13:53:44;2.97;;;2.75;;
5416;SDS011;2731;50.754;12.990;2023-10-19T13:56:28;5.65;;;2.78;;
5416;SDS011;2731;50.754;12.990;2023-10-19T13:59:04;3.55;;;2.47;;
5416;SDS011;2731;50.754;12.990;2023-10-19T14:01:50;4.13;;;2.65;;
5416;SDS011;2731;50.754;12.990;2023-10-19T14:04:34;6.70;;;2.72;;
5416;SDS011;2731;50.754;12.990;2023-10-19T14:07:19;3.13;;;2.22;;
5416;SDS011;2731;50.754;12.990;2023-10-19T14:10:04;4.53;;;2.67;;
5416;SDS011;2731;50.754;12.990;2023-10-19T14:12:38;4.68;;;3.30;;
5416;SDS011;2731;50.754;12.990;2023-10-19T14:15:25;5.82;;;3.50;;
5416;SDS011;2731;50.754;12.990;2023-10-19T14:18:11;6.20;;;3.33;;
5416;SDS011;2731;50.754;12.990;2023-10-19T14:20:57;8.68;;;4.75;;
5416;SDS011;2731;50.754;12.990;2023-10-19T14:23:42;6.85;;;3.55;;
5416;SDS011;2731;50.754;12.990;2023-10-19T14:26:28;6.15;;;3.33;;
5416;SDS011;2731;50.754;12.990;2023-10-19T14:29:14;6.03;;;3.88;;
5416;SDS011;2731;50.754;12.990;2023-10-19T14:31:40;5.57;;;3.72;;
5416;SDS011;2731;50.754;12.990;2023-10-19T14:34:25;4.32;;;3.10;;
5416;SDS011;2731;50.754;12.990;2023-10-19T14:37:10;5.25;;;3.40;;
5416;SDS011;2731;50.754;12.990;2023-10-19T14:39:55;4.80;;;3.40;;
5416;SDS011;2731;50.754;12.990;2023-10-19T14:42:42;5.13;;;3.55;;
5416;SDS011;2731;50.754;12.990;2023-10-19T14:45:27;5.85;;;3.30;;
5416;SDS011;2731;50.754;12.990;2023-10-19T14:47:55;4.13;;;3.28;;
5416;SDS011;2731;50.754;12.990;2023-10-19T14:50:39;7.65;;;3.75;;
5416;SDS011;2731;50.754;12.990;2023-10-19T14:53:26;3.90;;;2.78;;
5416;SDS011;2731;50.754;12.990;2023-10-19T14:56:11;4.25;;;2.85;;
5416;SDS011;2731;50.754;12.990;2023-10-19T14:58:56;3.72;;;3.42;;
5416;SDS011;2731;50.754;12.990;2023-10-19T15:01:42;4.40;;;3.60;;
5416;SDS011;2731;50.754;12.990;2023-10-19T15:04:27;5.88;;;4.35;;
5416;SDS011;2731;50.754;12.990;2023-10-19T15:06:54;6.00;;;3.97;;
5416;SDS011;2731;50.754;12.990;2023-10-19T15:09:39;5.40;;;4.00;;
5416;SDS011;2731;50.754;12.990;2023-10-19T15:12:24;5.22;;;3.80;;
5416;SDS011;2731;50.754;12.990;2023-10-19T15:14:50;6.47;;;4.75;;
5416;SDS011;2731;50.754;12.990;2023-10-19T15:17:37;6.28;;;3.70;;
5416;SDS011;2731;50.754;12.990;2023-10-19T15:20:26;6.43;;;3.63;;
5416;SDS011;2731;50.754;12.990;2023-10-19T15:23:11;5.35;;;3.28;;
5416;SDS011;2731;50.754;12.990;2023-10-19T15:25:57;5.28;;;3.33;;
5416;SDS011;2731;50.754;12.990;2023-10-19T15:28:41;4.97;;;3.30;;
5416;SDS011;2731;50.754;12.990;2023-10-19T15:31:26;5.78;;;3.35;;
5416;SDS011;2731;50.754;12.990;2023-10-19T15:34:11;4.50;;;3.35;;
5416;SDS011;2731;50.754;12.990;2023-10-19T15:36:56;5.75;;;3.35;;
5416;SDS011;2731;50.754;12.990;2023-10-19T15:39:41;3.88;;;3.20;;
5416;SDS011;2731;50.754;12.990;2023-10-19T15:42:28;7.15;;;3.75;;
5416;SDS011;2731;50.754;12.990;2023-10-19T15:45:13;7.18;;;4.43;;
5416;SDS011;2731;50.754;12.990;2023-10-19T15:48:02;6.28;;;3.92;;
5416;SDS011;2731;50.754;12.990;2023-10-19T15:50:46;4.88;;;3.85;;
5416;SDS011;2731;50.754;12.990;2023-10-19T15:53:34;4.53;;;3.65;;
5416;SDS011;2731;50.754;12.990;2023-10-19T15:56:18;3.53;;;2.83;;
5416;SDS011;2731;50.754;12.990;2023-10-19T15:59:06;5.57;;;3.40;;
5416;SDS011;2731;50.754;12.990;2023-10-19T16:01:51;5.57;;;4.00;;
5416;SDS011;2731;50.754;12.990;2023-10-19T16:04:36;4.80;;;3.53;;
5416;SDS011;2731;50.754;12.990;2023-10-19T16:07:21;5.75;;;3.30;;
5416;SDS011;2731;50.754;12.990;2023-10-19T16:09:47;4.85;;;3.25;;
5416;SDS011;2731;50.754;12.990;2023-10-19T16:12:32;4.10;;;3.38;;
5416;SDS011;2731;50.754;12.990;2023-10-19T16:14:58;5.38;;;3.55;;